Time;durP1;ratioP1;P1;durP2;ratioP2;P2;SDS_P1;SDS_P2;PMS_P1;PMS_P2;Temp;Humidity;BMP_temperature;BMP_pressure;BME280_temperature;BME280_humidity;BME280_pressure;Samples;Min_cycle;Max_cycle;Signal;HPM_P1;HPM_P2
2023/09/28 00:02:54;;;;;;;3.75;2.42;;;20.50;99.90;;;;;;5092525;28;20230;-49
2023/09/28 00:05:20;;;;;;;5.47;2.88;;;20.50;99.90;;;;;;5092186;28;20020;-50
2023/09/28 00:07:47;;;;;;;4.85;2.20;;;20.50;99.90;;;;;;5094329;28;20438;-51
2023/09/28 00:10:15;;;;;;;3.22;2.10;;;20.40;99.90;;;;;;5091807;28;20031;-51
2023/09/28 00:12:52;;;;;;;4.38;2.53;;;20.40;99.90;;;;;;5092279;28;20071;-50
2023/09/28 00:15:19;;;;;;;2.78;1.70;;;20.40;99.90;;;;;;5092108;28;20036;-51
2023/09/28 00:17:47;;;;;;;4.80;2.33;;;20.30;99.90;;;;;;5091786;28;20039;-52
2023/09/28 00:20:17;;;;;;;6.90;2.80;;;20.40;99.90;;;;;;5091803;28;20533;-53
2023/09/28 00:22:54;;;;;;;3.50;2.15;;;20.40;99.90;;;;;;5092005;28;20524;-54
2023/09/28 00:25:21;;;;;;;5.78;3.13;;;20.30;99.90;;;;;;5091809;28;20439;-53
2023/09/28 00:27:55;;;;;;;3.20;2.10;;;20.40;99.90;;;;;;5073811;28;20046;-54
2023/09/28 00:30:22;;;;;;;3.90;2.28;;;20.30;99.90;;;;;;5056315;28;20038;-54
2023/09/28 00:32:57;;;;;;;4.78;2.30;;;20.30;99.90;;;;;;5073724;28;20627;-54
2023/09/28 00:35:25;;;;;;;3.20;2.05;;;20.30;99.90;;;;;;5091844;28;20034;-54
2023/09/28 00:37:51;;;;;;;2.63;2.08;;;20.30;99.90;;;;;;5073446;28;20446;-50
2023/09/28 00:40:21;;;;;;;4.20;2.05;;;20.30;99.90;;;;;;5073160;28;20070;-52
2023/09/28 00:42:49;;;;;;;4.03;2.42;;;20.20;99.90;;;;;;5091714;28;20032;-49
2023/09/28 00:45:15;;;;;;;3.30;2.20;;;20.20;99.90;;;;;;5091513;28;20031;-54
2023/09/28 00:47:41;;;;;;;3.85;2.28;;;20.20;99.90;;;;;;5091608;28;20028;-53
2023/09/28 00:50:14;;;;;;;4.20;2.10;;;20.20;99.90;;;;;;5073042;28;20054;-54
2023/09/28 00:52:46;;;;;;;4.00;2.20;;;20.20;99.90;;;;;;5073370;28;20039;-53
2023/09/28 00:55:15;;;;;;;3.17;1.83;;;20.20;99.90;;;;;;5073507;28;20032;-52
2023/09/28 00:57:45;;;;;;;3.08;2.00;;;20.20;99.90;;;;;;5073539;28;20032;-53
2023/09/28 01:00:26;;;;;;;3.50;1.85;;;20.10;99.90;;;;;;5073049;28;20591;-54
2023/09/28 01:02:53;;;;;;;4.22;2.30;;;20.10;99.90;;;;;;5074281;28;20606;-53
2023/09/28 01:05:20;;;;;;;4.50;2.05;;;20.10;99.90;;;;;;5073253;28;20016;-54
2023/09/28 01:07:46;;;;;;;5.65;2.22;;;20.00;99.90;;;;;;5091212;28;20039;-53
2023/09/28 01:10:20;;;;;;;3.60;2.10;;;20.00;99.90;;;;;;5090886;28;20028;-50
2023/09/28 01:12:47;;;;;;;5.03;2.35;;;20.00;99.90;;;;;;5073443;28;20441;-53
2023/09/28 01:15:12;;;;;;;4.47;1.92;;;19.90;99.90;;;;;;5072959;28;20032;-53
2023/09/28 01:17:39;;;;;;;3.30;1.95;;;20.00;99.90;;;;;;5072867;28;20107;-51
2023/09/28 01:20:24;;;;;;;3.25;1.92;;;20.00;99.90;;;;;;5090521;28;20370;-54
2023/09/28 01:22:50;;;;;;;3.97;2.15;;;20.00;99.90;;;;;;5091414;28;20115;-51
2023/09/28 01:25:19;;;;;;;3.05;2.00;;;20.00;99.90;;;;;;5072645;28;20144;-53
2023/09/28 01:27:46;;;;;;;3.47;2.10;;;19.90;99.90;;;;;;5072765;28;20036;-51
2023/09/28 01:30:13;;;;;;;3.30;2.00;;;19.90;99.90;;;;;;5072379;28;20134;-52
2023/09/28 01:32:39;;;;;;;2.95;1.88;;;19.90;99.90;;;;;;5090745;28;20032;-51
2023/09/28 01:35:06;;;;;;;4.60;2.83;;;19.90;99.90;;;;;;5090798;28;20099;-53
2023/09/28 01:37:49;;;;;;;4.15;2.45;;;19.90;99.90;;;;;;5072329;28;20054;-49
2023/09/28 01:40:16;;;;;;;3.35;2.22;;;19.90;99.90;;;;;;5090298;28;20471;-52
2023/09/28 01:42:42;;;;;;;3.28;1.80;;;19.90;99.90;;;;;;5072037;28;20435;-50
2023/09/28 01:45:08;;;;;;;5.32;2.45;;;19.80;99.90;;;;;;5090695;28;20089;-52
2023/09/28 01:47:34;;;;;;;3.55;2.20;;;19.80;99.90;;;;;;5090548;28;20071;-54
2023/09/28 01:50:01;;;;;;;4.28;1.75;;;19.80;99.90;;;;;;5072395;28;20028;-53
2023/09/28 01:52:26;;;;;;;4.47;2.30;;;19.80;99.90;;;;;;5072309;28;20032;-53
2023/09/28 01:54:52;;;;;;;4.63;2.60;;;19.70;99.90;;;;;;5090567;28;20077;-54
2023/09/28 01:57:18;;;;;;;4.13;2.05;;;19.80;99.90;;;;;;5072201;28;20067;-54
2023/09/28 01:59:44;;;;;;;3.00;1.90;;;19.70;99.90;;;;;;5072235;28;20063;-54
2023/09/28 02:02:10;;;;;;;3.33;1.90;;;19.70;99.90;;;;;;5072246;28;20035;-49
2023/09/28 02:04:39;;;;;;;4.32;1.65;;;19.70;99.90;;;;;;5090409;28;20038;-53
2023/09/28 02:07:05;;;;;;;5.00;2.72;;;19.70;99.90;;;;;;5090490;28;20494;-54
2023/09/28 02:09:31;;;;;;;3.63;1.92;;;19.70;99.90;;;;;;5072041;28;20130;-53
2023/09/28 02:11:57;;;;;;;3.55;2.10;;;19.60;99.90;;;;;;5072156;28;20123;-54
2023/09/28 02:14:23;;;;;;;3.20;1.98;;;19.60;99.90;;;;;;5072076;28;20028;-52
2023/09/28 02:16:50;;;;;;;2.97;2.05;;;19.50;99.90;;;;;;5072113;28;20039;-54
2023/09/28 02:19:16;;;;;;;5.05;2.05;;;19.50;99.90;;;;;;5072008;28;20077;-50
2023/09/28 02:21:46;;;;;;;4.20;2.05;;;19.50;99.90;;;;;;5071957;28;20110;-50
2023/09/28 02:24:12;;;;;;;3.58;1.95;;;19.50;99.90;;;;;;5055436;28;20036;-53
2023/09/28 02:26:38;;;;;;;5.32;2.08;;;19.40;99.90;;;;;;5072193;28;20040;-50
2023/09/28 02:29:03;;;;;;;4.45;2.15;;;19.30;99.90;;;;;;5071818;28;20085;-54
2023/09/28 02:31:31;;;;;;;4.65;2.10;;;19.20;99.90;;;;;;5089997;28;20074;-51
2023/09/28 02:33:57;;;;;;;3.90;2.40;;;19.10;99.90;;;;;;5090263;28;20385;-52
2023/09/28 02:36:23;;;;;;;4.55;2.30;;;19.10;99.90;;;;;;5072213;28;20042;-50
2023/09/28 02:38:51;;;;;;;3.92;2.10;;;19.00;99.90;;;;;;5071887;28;20077;-54
2023/09/28 02:41:20;;;;;;;3.63;2.00;;;19.00;99.90;;;;;;5071698;28;20477;-51
2023/09/28 02:43:46;;;;;;;3.60;2.03;;;19.10;99.90;;;;;;5071993;28;20032;-53
2023/09/28 02:46:13;;;;;;;3.25;2.05;;;19.10;99.90;;;;;;5090301;28;20039;-51
2023/09/28 02:48:38;;;;;;;3.58;2.05;;;19.10;99.90;;;;;;5071560;28;20032;-53
2023/09/28 02:51:06;;;;;;;3.38;2.00;;;19.10;99.90;;;;;;5071846;28;20039;-53
2023/09/28 02:53:32;;;;;;;5.18;2.28;;;19.10;99.90;;;;;;5091391;28;20377;-52
2023/09/28 02:55:58;;;;;;;4.32;2.20;;;19.10;99.90;;;;;;5093534;28;20078;-53
2023/09/28 02:58:24;;;;;;;4.07;2.28;;;19.10;99.90;;;;;;5075074;28;20031;-53
2023/09/28 03:00:53;;;;;;;3.88;2.20;;;19.00;99.90;;;;;;5093334;28;20024;-53
2023/09/28 03:03:19;;;;;;;3.28;2.10;;;18.90;99.90;;;;;;5075249;28;20035;-53
2023/09/28 03:05:44;;;;;;;4.72;2.30;;;19.00;99.90;;;;;;5093419;28;20016;-54
2023/09/28 03:08:14;;;;;;;5.93;2.28;;;18.90;99.90;;;;;;5075316;28;20032;-54
2023/09/28 03:10:43;;;;;;;3.92;2.08;;;18.90;99.90;;;;;;5092941;28;20403;-54
2023/09/28 03:13:11;;;;;;;3.03;1.70;;;18.80;99.90;;;;;;5093576;28;20039;-54
2023/09/28 03:15:44;;;;;;;3.00;1.92;;;18.70;99.90;;;;;;5075168;28;20028;-53
2023/09/28 03:18:10;;;;;;;3.08;1.92;;;18.70;99.90;;;;;;5074942;28;20149;-54
2023/09/28 03:20:36;;;;;;;3.67;2.10;;;18.80;99.90;;;;;;5092685;28;20070;-52
2023/09/28 03:23:04;;;;;;;3.30;2.03;;;18.80;99.90;;;;;;5074813;28;20029;-52
2023/09/28 03:25:30;;;;;;;3.45;2.13;;;18.70;99.90;;;;;;5075068;28;20105;-50
2023/09/28 03:27:56;;;;;;;3.00;1.90;;;18.70;99.90;;;;;;5092944;28;20107;-54
2023/09/28 03:30:25;;;;;;;4.13;2.10;;;18.70;99.90;;;;;;5074446;28;20480;-53
2023/09/28 03:32:51;;;;;;;3.55;2.38;;;18.70;99.90;;;;;;5092940;28;20110;-52
2023/09/28 03:35:18;;;;;;;4.35;2.33;;;18.70;99.90;;;;;;5093359;28;20040;-52
2023/09/28 03:37:45;;;;;;;3.60;1.95;;;18.80;99.90;;;;;;5092556;28;20032;-52
2023/09/28 03:40:12;;;;;;;5.22;2.60;;;18.70;99.90;;;;;;5074568;28;20157;-50
2023/09/28 03:42:39;;;;;;;5.15;2.20;;;18.70;99.90;;;;;;5074725;28;20437;-54
2023/09/28 03:45:08;;;;;;;3.45;2.25;;;18.70;99.90;;;;;;5092869;28;20036;-54
2023/09/28 03:47:35;;;;;;;3.53;1.88;;;18.60;99.90;;;;;;5092431;28;20373;-54
2023/09/28 03:50:01;;;;;;;4.53;2.30;;;18.70;99.90;;;;;;5092258;28;20514;-54
2023/09/28 03:52:26;;;;;;;3.50;2.03;;;18.70;99.90;;;;;;5092273;28;20063;-53
2023/09/28 03:54:52;;;;;;;4.07;2.10;;;18.70;99.90;;;;;;5092547;28;20067;-53
2023/09/28 03:57:18;;;;;;;2.72;1.80;;;18.50;99.90;;;;;;5092440;28;20028;-54
2023/09/28 03:59:43;;;;;;;4.55;2.17;;;18.40;99.90;;;;;;5092158;28;20031;-54
2023/09/28 04:02:09;;;;;;;6.03;2.42;;;18.40;99.90;;;;;;5092110;28;20056;-51
2023/09/28 04:04:35;;;;;;;3.50;2.05;;;18.30;99.90;;;;;;5091632;28;20028;-54
2023/09/28 04:07:01;;;;;;;4.00;2.30;;;18.30;99.90;;;;;;5092142;28;20028;-51
2023/09/28 04:09:26;;;;;;;3.90;2.33;;;18.30;99.90;;;;;;5091931;28;20043;-52
2023/09/28 04:11:52;;;;;;;8.70;2.65;;;18.20;99.90;;;;;;5091926;28;20492;-54
2023/09/28 04:14:18;;;;;;;4.07;2.40;;;18.20;99.90;;;;;;5092158;28;20038;-54
2023/09/28 04:16:44;;;;;;;6.68;3.10;;;18.20;99.90;;;;;;5092038;28;20036;-49
2023/09/28 04:19:10;;;;;;;5.45;2.40;;;18.20;99.90;;;;;;5091634;28;20039;-51
2023/09/28 04:21:36;;;;;;;6.82;2.47;;;18.10;99.90;;;;;;5091660;28;20063;-52
2023/09/28 04:24:02;;;;;;;4.57;2.55;;;18.10;99.90;;;;;;5092008;28;20147;-50
2023/09/28 04:26:28;;;;;;;4.22;2.67;;;18.10;99.90;;;;;;5091858;28;20024;-52
2023/09/28 04:28:53;;;;;;;5.32;2.50;;;17.90;99.90;;;;;;5091594;28;20043;-54
2023/09/28 04:31:19;;;;;;;5.80;2.88;;;17.90;99.90;;;;;;5091629;28;20106;-53
2023/09/28 04:33:45;;;;;;;3.75;2.22;;;18.10;99.90;;;;;;5091663;28;20116;-49
2023/09/28 04:36:11;;;;;;;5.13;2.90;;;18.10;99.90;;;;;;5091773;28;20115;-49
2023/09/28 04:38:36;;;;;;;7.55;4.20;;;18.10;99.90;;;;;;5073235;28;20032;-53
2023/09/28 04:41:02;;;;;;;4.90;3.00;;;18.00;99.90;;;;;;5091495;28;20504;-53
2023/09/28 04:43:29;;;;;;;6.70;3.03;;;18.00;99.90;;;;;;5091651;28;20028;-53
2023/09/28 04:45:54;;;;;;;8.27;3.67;;;17.90;99.90;;;;;;5091593;28;20472;-53
2023/09/28 04:48:20;;;;;;;5.82;2.80;;;17.80;99.90;;;;;;5091412;28;20034;-52
2023/09/28 04:50:45;;;;;;;5.55;2.92;;;17.80;99.90;;;;;;5072930;28;20032;-53
2023/09/28 04:53:11;;;;;;;4.00;2.60;;;17.70;99.90;;;;;;5091505;28;20040;-51
2023/09/28 04:55:37;;;;;;;4.70;2.40;;;17.70;99.90;;;;;;5091296;28;20036;-52
2023/09/28 04:58:02;;;;;;;5.05;2.53;;;17.60;99.90;;;;;;5091312;28;20028;-53
2023/09/28 05:00:28;;;;;;;4.35;2.42;;;17.70;99.90;;;;;;5072756;28;20028;-53
2023/09/28 05:02:54;;;;;;;6.70;3.22;;;17.60;99.90;;;;;;5073158;28;20036;-52
2023/09/28 05:05:19;;;;;;;4.72;3.08;;;17.60;99.90;;;;;;5091292;28;20081;-52
2023/09/28 05:07:45;;;;;;;4.53;2.75;;;17.50;99.90;;;;;;5091089;28;20481;-53
2023/09/28 05:10:11;;;;;;;8.23;3.15;;;17.50;99.90;;;;;;5090981;28;20032;-52
2023/09/28 05:12:37;;;;;;;4.70;2.80;;;17.60;99.90;;;;;;5091100;28;20036;-53
2023/09/28 05:15:04;;;;;;;5.55;3.00;;;17.60;99.90;;;;;;5091187;28;20480;-52
2023/09/28 05:17:30;;;;;;;6.43;2.95;;;17.60;99.90;;;;;;5089906;28;20028;-52
2023/09/28 05:19:56;;;;;;;5.68;3.17;;;17.60;99.90;;;;;;5090862;28;20505;-48
2023/09/28 05:22:22;;;;;;;7.28;3.13;;;17.50;99.90;;;;;;5091045;28;20054;-53
2023/09/28 05:24:48;;;;;;;5.63;2.95;;;17.40;99.90;;;;;;5090980;28;20039;-53
2023/09/28 05:27:13;;;;;;;4.97;2.90;;;17.40;99.90;;;;;;5091193;28;20028;-52
2023/09/28 05:29:39;;;;;;;5.55;2.85;;;17.30;99.90;;;;;;5090855;28;20039;-53
2023/09/28 05:32:05;;;;;;;6.18;3.42;;;17.30;99.90;;;;;;5090801;28;20031;-52
2023/09/28 05:34:31;;;;;;;6.57;2.72;;;17.20;99.90;;;;;;5091149;28;20388;-52
2023/09/28 05:36:56;;;;;;;6.20;3.40;;;17.10;99.90;;;;;;5090985;28;20036;-53
2023/09/28 05:39:23;;;;;;;6.45;2.78;;;17.00;99.90;;;;;;5090733;28;20016;-51
2023/09/28 05:41:49;;;;;;;7.57;3.35;;;16.90;99.90;;;;;;5090761;28;20422;-53
2023/09/28 05:44:14;;;;;;;6.30;3.53;;;16.80;99.90;;;;;;5090838;28;20093;-53
2023/09/28 05:46:40;;;;;;;5.88;3.30;;;16.70;99.90;;;;;;5090548;28;20402;-52
2023/09/28 05:49:06;;;;;;;6.47;3.35;;;16.70;99.90;;;;;;5072500;28;20419;-53
2023/09/28 05:51:31;;;;;;;9.27;4.13;;;16.80;99.90;;;;;;5090813;28;20472;-49
2023/09/28 05:53:57;;;;;;;6.82;3.55;;;16.70;99.90;;;;;;5090769;28;20028;-49
2023/09/28 05:56:22;;;;;;;8.32;3.85;;;16.70;99.90;;;;;;5090622;28;20450;-49
2023/09/28 05:58:48;;;;;;;7.05;3.20;;;16.70;99.90;;;;;;5090314;28;20032;-51
2023/09/28 06:01:17;;;;;;;10.68;3.67;;;16.60;99.90;;;;;;5090571;28;20027;-49
2023/09/28 06:03:43;;;;;;;7.63;3.72;;;16.70;99.90;;;;;;5090729;28;20028;-54
2023/09/28 06:06:14;;;;;;;7.82;3.50;;;16.70;99.90;;;;;;5091333;28;20198;-50
2023/09/28 06:08:39;;;;;;;13.73;7.60;;;16.70;99.90;;;;;;5090285;28;20082;-50
2023/09/28 06:11:05;;;;;;;6.97;3.80;;;16.70;99.90;;;;;;5090367;28;20071;-54
2023/09/28 06:13:31;;;;;;;9.40;3.67;;;16.90;99.90;;;;;;5090491;28;20179;-51
2023/09/28 06:15:56;;;;;;;6.85;3.63;;;17.10;99.90;;;;;;5090197;28;20063;-52
2023/09/28 06:18:22;;;;;;;6.68;3.42;;;17.10;99.90;;;;;;5090101;28;20032;-49
2023/09/28 06:20:47;;;;;;;6.15;3.20;;;17.20;99.90;;;;;;5090044;28;20028;-54
2023/09/28 06:23:14;;;;;;;8.82;4.38;;;17.20;99.90;;;;;;5090439;28;20047;-52
2023/09/28 06:25:41;;;;;;;7.53;3.83;;;17.20;99.90;;;;;;5090288;28;20481;-54
2023/09/28 06:28:07;;;;;;;6.15;3.28;;;17.20;99.90;;;;;;5090730;28;20040;-51
2023/09/28 06:30:33;;;;;;;5.80;3.28;;;17.20;99.90;;;;;;5093842;28;20047;-51
2023/09/28 06:32:59;;;;;;;10.80;3.72;;;17.20;99.90;;;;;;5094111;28;20028;-53
2023/09/28 06:35:24;;;;;;;8.00;3.70;;;17.30;99.90;;;;;;5094157;28;20447;-52
2023/09/28 06:37:50;;;;;;;8.23;3.50;;;17.30;99.90;;;;;;5093840;28;20054;-54
2023/09/28 06:40:15;;;;;;;5.53;3.28;;;17.40;99.90;;;;;;5058847;28;20036;-53
2023/09/28 06:42:41;;;;;;;6.78;3.60;;;17.40;99.90;;;;;;5093960;28;20023;-54
2023/09/28 06:45:07;;;;;;;10.23;4.00;;;17.50;99.90;;;;;;5093783;28;20483;-54
2023/09/28 06:47:33;;;;;;;9.63;3.90;;;17.50;99.90;;;;;;5093825;28;20123;-54
2023/09/28 06:49:59;;;;;;;8.63;4.00;;;17.50;99.90;;;;;;5093647;28;20118;-51
2023/09/28 06:52:25;;;;;;;7.63;4.30;;;17.50;99.90;;;;;;5093813;28;20046;-52
2023/09/28 06:54:51;;;;;;;7.15;3.70;;;17.60;99.90;;;;;;5075423;28;20027;-51
2023/09/28 06:57:17;;;;;;;7.40;3.50;;;17.60;99.90;;;;;;5093513;28;20036;-53
2023/09/28 06:59:42;;;;;;;8.88;3.85;;;17.70;99.90;;;;;;5093193;28;20491;-50
2023/09/28 07:02:09;;;;;;;8.77;3.67;;;17.80;99.90;;;;;;5093338;28;20081;-51
2023/09/28 07:04:35;;;;;;;8.25;3.80;;;17.90;99.90;;;;;;5093429;28;20111;-53
2023/09/28 07:07:00;;;;;;;7.93;3.20;;;18.00;99.90;;;;;;5094452;28;20119;-52
2023/09/28 07:09:26;;;;;;;6.95;3.45;;;18.00;99.90;;;;;;5093231;28;20052;-53
2023/09/28 07:11:52;;;;;;;5.82;3.17;;;18.00;99.90;;;;;;5093152;28;20028;-54
2023/09/28 07:14:17;;;;;;;8.57;3.70;;;18.10;99.90;;;;;;5093176;28;20084;-51
2023/09/28 07:16:43;;;;;;;8.77;3.65;;;18.20;99.90;;;;;;5093319;28;20115;-53
2023/09/28 07:19:09;;;;;;;8.50;3.25;;;18.30;99.90;;;;;;5092973;28;20032;-52
2023/09/28 07:21:36;;;;;;;9.50;3.60;;;18.30;99.90;;;;;;5093103;28;20070;-52
2023/09/28 07:24:02;;;;;;;7.90;3.30;;;18.40;99.90;;;;;;5093052;28;20127;-53
2023/09/28 07:26:28;;;;;;;6.20;3.42;;;18.40;99.90;;;;;;5093241;28;20020;-49
2023/09/28 07:28:54;;;;;;;6.95;3.20;;;18.50;99.90;;;;;;5092998;28;20362;-49
2023/09/28 07:31:21;;;;;;;5.22;3.20;;;18.50;99.90;;;;;;5093008;28;20024;-52
2023/09/28 07:33:48;;;;;;;7.05;3.20;;;18.60;99.90;;;;;;5093027;28;20492;-53
2023/09/28 07:36:14;;;;;;;5.55;2.95;;;18.70;99.90;;;;;;5093049;28;20373;-52
2023/09/28 07:38:40;;;;;;;9.25;3.55;;;18.80;99.90;;;;;;5092532;28;20472;-54
2023/09/28 07:41:06;;;;;;;9.05;3.75;;;18.90;99.90;;;;;;5091584;28;20043;-52
2023/09/28 07:43:31;;;;;;;6.90;2.75;;;19.20;99.90;;;;;;5074623;28;20044;-54
2023/09/28 07:45:57;;;;;;;7.47;2.95;;;19.20;99.90;;;;;;5092762;28;20036;-51
2023/09/28 07:48:23;;;;;;;7.78;3.00;;;19.50;99.90;;;;;;5074340;28;20065;-49
2023/09/28 07:50:48;;;;;;;7.63;3.30;;;19.60;99.90;;;;;;5092338;28;20380;-50
2023/09/28 07:53:14;;;;;;;8.20;3.10;;;19.60;99.90;;;;;;5092602;28;20086;-54
2023/09/28 07:55:40;;;;;;;5.47;3.13;;;19.70;99.90;;;;;;5092448;28;20028;-51
2023/09/28 07:58:05;;;;;;;8.10;3.28;;;19.80;99.90;;;;;;5074095;28;20032;-54
2023/09/28 08:00:32;;;;;;;5.47;2.97;;;19.80;99.90;;;;;;5092125;28;20020;-52
2023/09/28 08:02:57;;;;;;;6.60;2.85;;;19.80;99.90;;;;;;5092364;28;20028;-54
2023/09/28 08:05:23;;;;;;;6.53;2.72;;;20.00;99.90;;;;;;5092384;28;20392;-53
2023/09/28 08:07:49;;;;;;;5.78;2.28;;;20.00;99.90;;;;;;5092267;28;20119;-53
2023/09/28 08:10:15;;;;;;;7.57;2.70;;;20.10;99.90;;;;;;5091844;28;20028;-49
2023/09/28 08:12:42;;;;;;;7.07;2.95;;;20.10;99.90;;;;;;5092103;28;20032;-52
2023/09/28 08:15:08;;;;;;;7.38;2.97;;;20.20;99.90;;;;;;5092502;28;20043;-52
2023/09/28 08:17:36;;;;;;;8.45;2.88;;;20.20;99.90;;;;;;5092336;28;20346;-52
2023/09/28 08:20:02;;;;;;;6.18;3.10;;;20.40;99.90;;;;;;5073712;28;20400;-52
2023/09/28 08:22:28;;;;;;;5.50;2.67;;;20.40;99.90;;;;;;5092179;28;20032;-52
2023/09/28 08:24:53;;;;;;;5.05;2.72;;;20.40;99.90;;;;;;5092041;28;20024;-54
2023/09/28 08:27:19;;;;;;;5.68;2.90;;;20.50;99.90;;;;;;5091856;28;20024;-54
2023/09/28 08:29:44;;;;;;;5.18;2.70;;;20.50;99.90;;;;;;5091532;28;20404;-51
2023/09/28 08:32:10;;;;;;;6.38;2.58;;;20.70;99.90;;;;;;5091684;28;20031;-54
2023/09/28 08:34:36;;;;;;;5.20;2.50;;;20.80;99.90;;;;;;5091869;28;20078;-52
2023/09/28 08:37:03;;;;;;;5.93;2.60;;;20.60;99.90;;;;;;5091634;28;20059;-54
2023/09/28 08:39:30;;;;;;;8.60;2.60;;;20.50;99.90;;;;;;5091435;28;20058;-52
2023/09/28 08:42:01;;;;;;;4.68;2.20;;;20.50;99.90;;;;;;5091397;28;20058;-53
2023/09/28 08:44:31;;;;;;;4.82;2.45;;;20.50;99.90;;;;;;5091448;28;20111;-52
2023/09/28 08:46:58;;;;;;;5.28;2.78;;;20.60;99.90;;;;;;5091537;28;20295;-53
2023/09/28 08:49:27;;;;;;;5.68;2.30;;;20.70;99.90;;;;;;5091195;28;20469;-53
2023/09/28 08:51:56;;;;;;;3.35;1.80;;;20.80;99.90;;;;;;5091084;28;20194;-53
2023/09/28 08:54:23;;;;;;;7.50;2.00;;;20.80;99.90;;;;;;5091308;28;20032;-53
2023/09/28 08:56:50;;;;;;;5.43;2.30;;;21.00;99.90;;;;;;5091287;28;20547;-54
2023/09/28 08:59:17;;;;;;;5.18;2.30;;;21.20;99.90;;;;;;5091297;28;20069;-49
2023/09/28 09:01:43;;;;;;;6.30;1.73;;;21.30;99.90;;;;;;5091448;28;20028;-53
2023/09/28 09:04:09;;;;;;;7.25;2.03;;;21.30;99.90;;;;;;5091512;28;20020;-51
2023/09/28 09:06:35;;;;;;;4.25;2.15;;;21.30;99.90;;;;;;5091416;28;20039;-52
2023/09/28 09:09:03;;;;;;;4.45;1.92;;;21.30;99.90;;;;;;5090864;28;20491;-50
2023/09/28 09:11:33;;;;;;;4.95;1.77;;;21.20;99.90;;;;;;5091012;28;20491;-53
2023/09/28 09:13:59;;;;;;;7.07;2.33;;;21.30;99.90;;;;;;5091177;28;20028;-53
2023/09/28 09:16:28;;;;;;;5.82;2.28;;;21.40;99.90;;;;;;5091245;28;20392;-54
2023/09/28 09:18:58;;;;;;;5.20;2.00;;;21.50;99.90;;;;;;5090937;28;20233;-54
2023/09/28 09:21:24;;;;;;;5.68;2.40;;;21.60;99.90;;;;;;5090993;28;20028;-53
2023/09/28 09:24:10;;;;;;;8.15;2.00;;;21.80;99.90;;;;;;5090941;28;20024;-52
2023/09/28 09:26:43;;;;;;;3.33;1.77;;;21.90;99.90;;;;;;5091069;28;20042;-53
2023/09/28 09:29:11;;;;;;;7.35;2.10;;;21.80;99.90;;;;;;5090658;28;20150;-53
2023/09/28 09:31:49;;;;;;;5.32;2.00;;;21.80;99.90;;;;;;5090825;28;20028;-54
2023/09/28 09:34:17;;;;;;;5.00;1.85;;;21.60;99.90;;;;;;5090927;28;20035;-52
2023/09/28 09:36:51;;;;;;;7.38;2.28;;;21.40;99.90;;;;;;5090812;28;20027;-52
2023/09/28 09:39:22;;;;;;;7.00;2.10;;;21.30;99.90;;;;;;5090461;28;20039;-54
2023/09/28 09:41:49;;;;;;;5.88;2.30;;;21.30;99.90;;;;;;5090472;28;20024;-50
2023/09/28 09:44:21;;;;;;;6.80;2.20;;;21.30;99.90;;;;;;5090755;28;20032;-52
2023/09/28 09:46:49;;;;;;;5.78;2.03;;;21.20;99.90;;;;;;5090873;28;20053;-51
2023/09/28 09:49:16;;;;;;;4.80;1.80;;;21.20;99.90;;;;;;5090586;28;20405;-54
2023/09/28 09:51:45;;;;;;;7.93;2.08;;;21.10;99.90;;;;;;5090763;28;20047;-54
2023/09/28 09:54:20;;;;;;;;;;;21.00;99.90;;;;;;5091375;28;20035;-49
2023/09/28 09:56:47;;;;;;;6.07;1.98;;;21.00;99.90;;;;;;5072742;28;19927;-54
2023/09/28 09:59:16;;;;;;;3.90;1.70;;;20.90;99.90;;;;;;5090717;28;20028;-53
2023/09/28 10:01:47;;;;;;;7.95;2.20;;;21.00;99.90;;;;;;5072589;28;20032;-53
2023/09/28 10:04:17;;;;;;;6.60;2.10;;;21.00;99.90;;;;;;5093370;28;20027;-52
2023/09/28 10:06:48;;;;;;;5.70;1.83;;;20.90;99.90;;;;;;5094997;28;20035;-52
2023/09/28 10:09:18;;;;;;;7.05;2.28;;;20.90;99.90;;;;;;5094299;28;20032;-52
2023/09/28 10:11:46;;;;;;;4.93;2.40;;;21.00;99.90;;;;;;5094464;28;20093;-51
2023/09/28 10:14:14;;;;;;;9.15;2.55;;;21.00;99.90;;;;;;5094779;28;20369;-54
2023/09/28 10:16:41;;;;;;;11.03;2.20;;;21.00;99.90;;;;;;5094558;28;20049;-50
2023/09/28 10:19:09;;;;;;;7.15;2.15;;;21.10;99.90;;;;;;5094474;28;20036;-50
2023/09/28 10:21:36;;;;;;;8.25;2.20;;;21.10;99.90;;;;;;5094212;28;20404;-50
2023/09/28 10:24:12;;;;;;;5.50;2.25;;;21.20;99.90;;;;;;5094508;28;20043;-54
2023/09/28 10:26:49;;;;;;;4.65;1.58;;;21.20;99.90;;;;;;5094425;28;20028;-54
2023/09/28 10:29:28;;;;;;;4.85;2.15;;;21.20;99.90;;;;;;5075915;28;20032;-54
2023/09/28 10:31:54;;;;;;;5.40;1.58;;;21.30;99.90;;;;;;5094074;28;20051;-53
2023/09/28 10:34:22;;;;;;;4.60;1.85;;;21.30;99.90;;;;;;5094261;28;20511;-52
2023/09/28 10:37:15;;;;;;;4.43;1.60;;;21.30;99.90;;;;;;5094179;28;20476;-54
2023/09/28 10:39:55;;;;;;;6.00;2.10;;;21.30;99.90;;;;;;5075722;28;20481;-50
2023/09/28 10:42:22;;;;;;;5.63;2.20;;;21.20;99.90;;;;;;5093879;28;20027;-54
2023/09/28 10:44:53;;;;;;;7.55;1.95;;;21.20;99.90;;;;;;5093977;28;20040;-49
2023/09/28 10:47:20;;;;;;;5.07;2.38;;;21.10;99.90;;;;;;5093874;28;20548;-49
2023/09/28 10:49:48;;;;;;;6.72;2.20;;;21.10;99.90;;;;;;5093584;28;20086;-49
2023/09/28 10:52:14;;;;;;;6.60;1.83;;;21.10;99.90;;;;;;5093528;28;20028;-48
2023/09/28 10:54:41;;;;;;;5.20;2.05;;;21.10;99.90;;;;;;5093716;28;20507;-48
2023/09/28 10:57:09;;;;;;;5.53;2.00;;;21.10;99.90;;;;;;5093596;28;20035;-48
2023/09/28 10:59:41;;;;;;;4.20;1.55;;;21.10;99.90;;;;;;5093474;28;20448;-48
2023/09/28 11:02:06;;;;;;;7.68;2.13;;;21.10;99.90;;;;;;5093372;28;20043;-48
2023/09/28 11:04:32;;;;;;;6.97;2.38;;;21.10;99.90;;;;;;5093557;28;20479;-49
2023/09/28 11:07:00;;;;;;;8.25;2.22;;;21.00;99.90;;;;;;5075327;28;20430;-48
2023/09/28 11:09:29;;;;;;;4.88;1.85;;;21.00;99.90;;;;;;5093228;28;20032;-49
2023/09/28 11:11:54;;;;;;;8.15;1.95;;;21.00;99.90;;;;;;5093194;28;20039;-51
2023/09/28 11:14:20;;;;;;;5.88;1.85;;;20.90;99.90;;;;;;5093340;28;20040;-51
2023/09/28 11:16:49;;;;;;;6.00;2.20;;;20.90;99.90;;;;;;5093306;28;20047;-50
2023/09/28 11:19:14;;;;;;;9.50;2.70;;;20.90;99.90;;;;;;5093063;28;20036;-51
2023/09/28 11:21:44;;;;;;;5.68;2.33;;;20.80;99.90;;;;;;5093046;28;20031;-52
2023/09/28 11:24:11;;;;;;;5.68;2.13;;;20.90;99.90;;;;;;5074894;28;20438;-48
2023/09/28 11:26:39;;;;;;;7.57;2.05;;;21.00;99.90;;;;;;5093220;28;20040;-53
2023/09/28 11:29:05;;;;;;;4.60;2.05;;;21.20;99.90;;;;;;5092793;28;20028;-49
2023/09/28 11:31:35;;;;;;;6.47;2.10;;;21.20;99.90;;;;;;5092711;28;20481;-50
2023/09/28 11:34:02;;;;;;;8.80;2.13;;;21.30;99.90;;;;;;5093093;28;20040;-50
2023/09/28 11:36:28;;;;;;;7.25;2.38;;;21.40;99.90;;;;;;5092869;28;20031;-53
2023/09/28 11:38:55;;;;;;;4.78;1.60;;;21.40;99.90;;;;;;5092434;28;20448;-53
2023/09/28 11:41:23;;;;;;;6.68;2.20;;;21.30;99.90;;;;;;5092665;28;20124;-53
2023/09/28 11:43:56;;;;;;;7.38;2.40;;;21.30;99.90;;;;;;5092809;28;20552;-53
2023/09/28 11:46:28;;;;;;;5.55;1.88;;;21.30;99.90;;;;;;5092891;28;20077;-54
2023/09/28 11:49:11;;;;;;;5.50;1.88;;;21.30;99.90;;;;;;5092662;28;20523;-52
2023/09/28 11:51:38;;;;;;;9.80;1.80;;;21.20;99.90;;;;;;5092490;28;20040;-50
2023/09/28 11:54:08;;;;;;;6.50;2.38;;;21.30;99.90;;;;;;5092529;28;20143;-51
2023/09/28 11:56:34;;;;;;;6.43;1.90;;;21.30;99.90;;;;;;5092515;28;20028;-48
2023/09/28 11:59:00;;;;;;;7.63;2.25;;;21.40;99.90;;;;;;5072049;28;20527;-49
2023/09/28 12:01:26;;;;;;;4.63;1.95;;;21.40;99.90;;;;;;5072971;28;20081;-48
2023/09/28 12:03:51;;;;;;;7.15;1.85;;;21.30;99.90;;;;;;5071904;28;20025;-48
2023/09/28 12:06:18;;;;;;;6.40;1.98;;;21.20;99.90;;;;;;5072240;28;20052;-48
2023/09/28 12:08:44;;;;;;;6.95;1.73;;;21.20;99.90;;;;;;5070650;28;20036;-49
2023/09/28 12:11:11;;;;;;;10.00;2.17;;;21.10;99.90;;;;;;5053521;28;20397;-48
2023/09/28 12:13:39;;;;;;;7.75;2.03;;;21.10;99.90;;;;;;5071847;28;20370;-48
2023/09/28 12:16:08;;;;;;;;;;;21.10;99.90;;;;;;5072268;28;20106;-50
2023/09/28 12:18:33;;;;;;;4.65;2.00;;;21.10;99.90;;;;;;5071293;28;19923;-48
2023/09/28 12:20:59;;;;;;;6.85;1.60;;;21.10;99.90;;;;;;5071399;28;20032;-48
2023/09/28 12:23:25;;;;;;;7.03;1.60;;;21.00;99.90;;;;;;5071489;28;20028;-49
2023/09/28 12:25:51;;;;;;;6.53;1.80;;;21.00;99.90;;;;;;5071082;28;20035;-49
2023/09/28 12:28:17;;;;;;;5.95;2.90;;;21.00;99.90;;;;;;5071372;28;20072;-48
2023/09/28 12:30:44;;;;;;;5.07;2.10;;;21.00;99.90;;;;;;5071333;28;20074;-49
2023/09/28 12:33:10;;;;;;;4.88;1.75;;;21.00;99.90;;;;;;5084018;28;20036;-49
2023/09/28 12:35:36;;;;;;;6.18;1.75;;;21.00;99.90;;;;;;5091545;28;20032;-49
2023/09/28 12:38:05;;;;;;;4.80;1.90;;;21.10;99.90;;;;;;5091627;28;20086;-49
2023/09/28 12:40:32;;;;;;;;;;;21.20;99.90;;;;;;5091635;28;20475;-49
2023/09/28 12:43:00;;;;;;;6.50;1.80;;;21.40;99.90;;;;;;5091515;28;19991;-49
2023/09/28 12:45:26;;;;;;;8.00;1.65;;;21.40;99.90;;;;;;5091268;28;20043;-52
2023/09/28 12:47:53;;;;;;;6.65;1.80;;;21.50;99.90;;;;;;5091550;28;20044;-49
2023/09/28 12:50:19;;;;;;;10.27;2.20;;;21.50;99.90;;;;;;5091064;28;20023;-49